createdAt,value
2023-01-09T00:01:41.083Z,0.73
2023-01-09T00:04:08.600Z,0.50
2023-01-09T00:06:36.548Z,0.77
2023-01-09T00:09:04.184Z,0.50
2023-01-09T00:11:31.502Z,1.05
2023-01-09T00:13:58.880Z,1.20
2023-01-09T00:16:26.594Z,0.57
2023-01-09T00:18:53.848Z,0.52
2023-01-09T00:21:21.210Z,0.80
2023-01-09T00:23:48.862Z,0.80
2023-01-09T00:26:17.783Z,0.52
2023-01-09T00:28:45.915Z,0.90
2023-01-09T00:31:13.644Z,0.43
2023-01-09T00:33:45.238Z,0.65
2023-01-09T00:36:12.800Z,1.02
2023-01-09T00:38:40.999Z,0.73
2023-01-09T00:41:10.721Z,1.08
2023-01-09T00:43:41.911Z,0.63
2023-01-09T00:46:09.773Z,0.80
2023-01-09T00:48:39.519Z,1.48
2023-01-09T00:51:08.232Z,0.82
2023-01-09T00:53:36.774Z,1.20
2023-01-09T00:56:05.749Z,1.48
2023-01-09T00:58:34.227Z,0.95
2023-01-09T01:01:01.851Z,0.90
2023-01-09T01:03:29.140Z,0.30
2023-01-09T01:06:15.078Z,0.73
2023-01-09T01:08:43.645Z,0.60
2023-01-09T01:11:12.503Z,0.40
2023-01-09T01:13:40.483Z,0.60
2023-01-09T01:16:09.135Z,0.43
2023-01-09T01:18:36.775Z,0.70
2023-01-09T01:21:11.025Z,0.65
2023-01-09T01:23:38.973Z,0.32
2023-01-09T01:26:07.185Z,0.73
2023-01-09T01:28:34.559Z,0.40
2023-01-09T01:31:02.424Z,0.40
2023-01-09T01:33:29.690Z,0.40
2023-01-09T01:36:01.006Z,0.30
2023-01-09T01:38:28.417Z,0.50
2023-01-09T01:40:56.006Z,0.40
2023-01-09T01:43:23.341Z,0.95
2023-01-09T01:45:50.667Z,1.05
2023-01-09T01:48:19.940Z,0.77
2023-01-09T01:50:49.390Z,0.63
2023-01-09T01:53:22.064Z,0.77
2023-01-09T01:58:16.711Z,0.40
2023-01-09T02:00:45.889Z,0.50
2023-01-09T02:03:14.517Z,0.50
2023-01-09T02:05:41.938Z,0.50
2023-01-09T02:08:09.587Z,0.70
2023-01-09T02:10:38.008Z,0.73
2023-01-09T02:13:05.567Z,1.55
2023-01-09T02:15:51.780Z,0.50
2023-01-09T02:18:26.420Z,0.60
2023-01-09T02:20:57.764Z,0.40
2023-01-09T02:23:43.850Z,1.15
2023-01-09T02:26:35.673Z,0.40
2023-01-09T02:29:02.887Z,0.80
2023-01-09T02:31:35.849Z,0.70
2023-01-09T02:34:09.878Z,0.75
2023-01-09T02:37:01.897Z,0.60
2023-01-09T02:39:36.500Z,1.67
2023-01-09T02:42:11.788Z,0.50
2023-01-09T02:44:42.953Z,0.80
2023-01-09T02:47:16.202Z,0.50
2023-01-09T02:50:06.707Z,1.17
2023-01-09T02:52:59.904Z,1.88
2023-01-09T02:55:35.196Z,0.93
2023-01-09T02:58:11.251Z,0.80
2023-01-09T03:00:59.301Z,0.47
2023-01-09T03:03:39.482Z,0.93
2023-01-09T03:06:06.823Z,0.57
2023-01-09T03:08:37.522Z,1.58
2023-01-09T03:11:07.171Z,1.02
2023-01-09T03:13:37.425Z,0.70
2023-01-09T03:16:06.935Z,0.43
2023-01-09T03:18:35.199Z,0.50
2023-01-09T03:21:02.982Z,0.80
2023-01-09T03:23:45.838Z,0.80
2023-01-09T03:28:40.200Z,1.30
2023-01-09T03:31:07.450Z,0.68
2023-01-09T03:33:34.895Z,0.85
2023-01-09T03:36:02.155Z,0.75
2023-01-09T03:38:29.415Z,1.98
2023-01-09T03:40:56.634Z,0.50
2023-01-09T03:43:23.895Z,1.00
2023-01-09T03:45:51.235Z,1.13
2023-01-09T03:48:18.491Z,0.90
2023-01-09T03:50:47.335Z,0.50
2023-01-09T03:53:14.971Z,0.70
2023-01-09T03:55:49.348Z,0.52
2023-01-09T03:58:17.239Z,0.73
2023-01-09T04:00:46.077Z,0.82
2023-01-09T04:03:13.691Z,0.80
2023-01-09T04:05:41.181Z,0.80
2023-01-09T04:08:08.418Z,1.38
2023-01-09T04:10:35.674Z,0.85
2023-01-09T04:13:02.888Z,0.80
2023-01-09T04:15:30.115Z,0.63
2023-01-09T04:17:57.369Z,1.08
2023-01-09T04:20:24.605Z,1.05
2023-01-09T04:22:51.834Z,0.52
2023-01-09T04:25:19.122Z,0.68
2023-01-09T04:27:47.671Z,0.60
2023-01-09T04:30:16.597Z,0.80
2023-01-09T04:32:43.941Z,0.30
2023-01-09T04:35:11.549Z,0.98
2023-01-09T04:37:39.031Z,0.75
2023-01-09T04:40:13.474Z,0.73
2023-01-09T04:42:41.198Z,0.50
2023-01-09T04:45:10.446Z,1.15
2023-01-09T04:47:37.771Z,0.55
2023-01-09T04:50:05.284Z,1.20
2023-01-09T04:52:39.626Z,0.50
2023-01-09T04:55:07.647Z,0.50
2023-01-09T04:57:35.471Z,0.75
2023-01-09T05:00:02.988Z,0.50
2023-01-09T05:02:30.265Z,0.98
2023-01-09T05:04:57.562Z,1.35
2023-01-09T05:07:24.878Z,0.50
2023-01-09T05:09:52.131Z,0.60
2023-01-09T05:12:19.507Z,0.40
2023-01-09T05:14:46.810Z,0.70
2023-01-09T05:17:14.059Z,0.50
2023-01-09T05:19:42.339Z,0.73
2023-01-09T05:22:09.584Z,0.82
2023-01-09T05:24:36.948Z,0.75
2023-01-09T05:27:04.269Z,0.70
2023-01-09T05:29:31.633Z,0.50
2023-01-09T05:31:59.086Z,0.60
2023-01-09T05:34:26.357Z,0.52
2023-01-09T05:36:53.558Z,0.40
2023-01-09T05:39:20.982Z,1.23
2023-01-09T05:41:48.231Z,0.50
2023-01-09T05:44:15.524Z,0.55
2023-01-09T05:46:43.001Z,0.40
2023-01-09T05:49:10.372Z,0.82
2023-01-09T05:51:37.627Z,0.38
2023-01-09T05:54:07.495Z,0.45
2023-01-09T05:56:34.930Z,0.75
2023-01-09T05:59:02.231Z,0.40
2023-01-09T06:01:29.422Z,0.70
2023-01-09T06:03:56.773Z,0.65
2023-01-09T06:06:24.312Z,0.68
2023-01-09T06:08:51.647Z,0.57
2023-01-09T06:11:18.909Z,0.70
2023-01-09T06:13:46.396Z,0.50
2023-01-09T06:16:14.016Z,0.65
2023-01-09T06:18:41.411Z,0.80
2023-01-09T06:21:08.706Z,0.70
2023-01-09T06:23:36.060Z,0.43
2023-01-09T06:26:03.362Z,0.50
2023-01-09T06:28:30.627Z,0.40
2023-01-09T06:30:57.949Z,0.60
2023-01-09T06:33:25.317Z,0.55
2023-01-09T06:35:52.606Z,0.50
2023-01-09T06:38:19.986Z,0.50
2023-01-09T06:40:47.283Z,0.47
2023-01-09T06:43:14.564Z,0.35
2023-01-09T06:45:42.673Z,0.73
2023-01-09T06:48:10.383Z,0.40
2023-01-09T06:50:37.616Z,0.50
2023-01-09T06:53:05.039Z,0.50
2023-01-09T06:55:32.407Z,0.50
2023-01-09T06:57:59.815Z,0.32
2023-01-09T07:00:27.282Z,0.20
2023-01-09T07:02:54.590Z,0.50
2023-01-09T07:05:22.055Z,0.30
2023-01-09T07:07:49.357Z,0.55
2023-01-09T07:10:16.760Z,1.05
2023-01-09T07:12:44.120Z,0.32
2023-01-09T07:15:11.560Z,0.20
2023-01-09T07:17:38.831Z,0.90
2023-01-09T07:20:06.379Z,0.43
2023-01-09T07:22:33.800Z,0.60
2023-01-09T07:25:01.187Z,0.60
2023-01-09T07:27:28.512Z,0.65
2023-01-09T07:29:55.698Z,1.23
2023-01-09T07:32:22.906Z,0.95
2023-01-09T07:34:51.501Z,0.40
2023-01-09T07:37:18.861Z,0.50
2023-01-09T07:39:46.077Z,0.30
2023-01-09T07:42:13.324Z,0.55
2023-01-09T07:44:40.602Z,0.40
2023-01-09T07:47:08.055Z,0.43
2023-01-09T07:49:35.300Z,0.43
2023-01-09T07:52:02.508Z,0.32
2023-01-09T07:54:29.846Z,0.73
2023-01-09T07:56:57.122Z,0.50
2023-01-09T07:59:24.849Z,0.50
2023-01-09T08:01:52.237Z,1.30
2023-01-09T08:04:19.555Z,0.95
2023-01-09T08:06:46.853Z,0.35
2023-01-09T08:09:15.123Z,0.93
2023-01-09T08:11:42.925Z,0.65
2023-01-09T08:14:10.226Z,0.73
2023-01-09T08:16:37.513Z,1.83
2023-01-09T08:19:04.852Z,0.45
2023-01-09T08:21:32.120Z,0.70
2023-01-09T08:23:59.399Z,0.60
2023-01-09T08:26:26.647Z,0.70
2023-01-09T08:28:53.849Z,0.40
2023-01-09T08:31:21.112Z,0.38
2023-01-09T08:33:48.425Z,0.75
2023-01-09T08:36:15.803Z,0.82
2023-01-09T08:38:43.047Z,1.00
2023-01-09T08:41:28.884Z,0.98
2023-01-09T08:44:15.014Z,0.77
2023-01-09T08:47:01.742Z,0.80
2023-01-09T08:49:28.942Z,1.00
2023-01-09T08:51:56.157Z,0.73
2023-01-09T08:54:23.541Z,1.10
2023-01-09T08:56:50.912Z,1.90
2023-01-09T08:59:18.181Z,1.63
2023-01-09T09:01:45.466Z,0.95
2023-01-09T09:04:12.709Z,0.90
2023-01-09T09:06:40.053Z,0.90
2023-01-09T09:09:07.283Z,1.00
2023-01-09T09:11:34.982Z,0.80
2023-01-09T09:14:24.970Z,0.40
2023-01-09T09:16:53.205Z,0.82
2023-01-09T09:19:20.645Z,1.02
2023-01-09T09:21:47.925Z,0.70
2023-01-09T09:24:15.217Z,1.10
2023-01-09T09:26:44.517Z,0.93
2023-01-09T09:29:11.934Z,1.02
2023-01-09T09:31:39.754Z,0.85
2023-01-09T09:34:07.678Z,1.10
2023-01-09T09:36:35.393Z,1.00
2023-01-09T09:39:02.948Z,1.00
2023-01-09T09:42:00.975Z,0.75
2023-01-09T09:44:48.453Z,0.50
2023-01-09T09:47:29.079Z,1.05
2023-01-09T09:50:05.522Z,0.57
2023-01-09T09:52:32.727Z,0.68
2023-01-09T09:55:03.059Z,1.13
2023-01-09T09:57:33.633Z,1.23
2023-01-09T10:00:01.094Z,0.60
2023-01-09T10:02:30.056Z,0.60
2023-01-09T10:05:02.337Z,0.68
2023-01-09T10:07:33.584Z,0.43
2023-01-09T10:10:01.818Z,0.50
2023-01-09T10:12:33.170Z,0.93
2023-01-09T10:15:03.422Z,1.23
2023-01-09T10:17:47.040Z,0.80
2023-01-09T10:20:14.241Z,0.60
2023-01-09T10:23:14.710Z,0.65
2023-01-09T10:25:42.751Z,0.65
2023-01-09T10:28:29.144Z,0.57
2023-01-09T10:31:11.427Z,1.40
2023-01-09T10:33:38.690Z,0.50
2023-01-09T10:36:11.510Z,0.35
2023-01-09T10:38:41.285Z,0.63
2023-01-09T10:41:11.159Z,0.50
2023-01-09T10:43:42.752Z,0.68
2023-01-09T10:46:12.600Z,0.40
2023-01-09T10:48:43.382Z,0.43
2023-01-09T10:51:19.547Z,0.38
2023-01-09T10:53:49.841Z,0.75
2023-01-09T10:56:22.087Z,1.13
2023-01-09T10:58:50.398Z,0.50
2023-01-09T11:01:20.440Z,0.70
2023-01-09T11:03:47.760Z,0.50
2023-01-09T11:06:26.879Z,1.00
2023-01-09T11:08:56.355Z,0.60
2023-01-09T11:11:37.239Z,0.30
2023-01-09T11:14:27.830Z,0.43
2023-01-09T11:16:59.139Z,0.60
2023-01-09T11:19:27.005Z,0.77
2023-01-09T11:22:13.080Z,0.43
2023-01-09T11:24:40.339Z,0.43
2023-01-09T11:27:13.680Z,0.85
2023-01-09T11:29:41.604Z,0.47
2023-01-09T11:32:24.985Z,0.40
2023-01-09T11:34:52.244Z,0.47
2023-01-09T11:37:29.870Z,0.50
2023-01-09T11:39:58.170Z,0.50
2023-01-09T11:42:45.074Z,0.40
2023-01-09T11:45:15.173Z,0.30
2023-01-09T11:47:42.476Z,0.40
2023-01-09T11:50:18.939Z,0.30
2023-01-09T11:52:46.805Z,0.50
2023-01-09T11:55:18.741Z,0.38
2023-01-09T11:57:45.964Z,0.60
2023-01-09T12:00:22.095Z,0.30
2023-01-09T12:03:07.616Z,0.30
2023-01-09T12:05:40.884Z,0.28
2023-01-09T12:08:20.182Z,0.30
2023-01-09T12:11:19.691Z,0.30
2023-01-09T12:13:50.100Z,0.20
2023-01-09T12:16:31.398Z,0.25
2023-01-09T12:19:05.619Z,0.25
2023-01-09T12:21:48.742Z,0.25
2023-01-09T12:24:28.842Z,0.30
2023-01-09T12:27:10.214Z,0.47
2023-01-09T12:29:57.661Z,0.40
2023-01-09T12:32:24.854Z,0.30
2023-01-09T12:35:10.624Z,0.50
2023-01-09T12:37:43.801Z,0.20
2023-01-09T12:40:17.316Z,0.30
2023-01-09T12:43:02.743Z,0.50
2023-01-09T12:45:35.288Z,0.38
2023-01-09T12:48:20.950Z,0.30
2023-01-09T12:50:57.714Z,0.20
2023-01-09T12:53:26.761Z,0.40
2023-01-09T12:55:59.000Z,0.40
2023-01-09T12:58:32.187Z,0.40
2023-01-09T13:01:00.996Z,0.40
2023-01-09T13:03:31.253Z,0.28
2023-01-09T13:05:58.773Z,0.30
2023-01-09T13:08:34.718Z,0.40
2023-01-09T13:11:18.966Z,0.20
2023-01-09T13:13:48.424Z,1.75
2023-01-09T13:16:27.635Z,0.40
2023-01-09T13:19:13.884Z,0.28
2023-01-09T13:21:42.038Z,0.30
2023-01-09T13:24:25.564Z,0.28
2023-01-09T13:27:04.151Z,0.30
2023-01-09T13:29:33.633Z,0.30
2023-01-09T13:32:14.697Z,0.40
2023-01-09T13:34:42.187Z,0.40
2023-01-09T13:37:20.678Z,0.40
2023-01-09T13:39:55.329Z,0.57
2023-01-09T13:42:46.286Z,0.40
2023-01-09T13:45:20.187Z,0.40
2023-01-09T13:47:47.504Z,0.30
2023-01-09T13:50:26.347Z,0.22
2023-01-09T13:52:53.956Z,0.32
2023-01-09T13:55:21.379Z,0.47
2023-01-09T13:58:08.584Z,0.57
2023-01-09T14:00:35.840Z,0.40
2023-01-09T14:03:09.012Z,0.50
2023-01-09T14:05:36.292Z,0.50
2023-01-09T14:08:08.159Z,0.40
2023-01-09T14:10:47.386Z,0.50
2023-01-09T14:13:17.732Z,0.45
2023-01-09T14:15:47.053Z,0.20
2023-01-09T14:18:23.664Z,0.43
2023-01-09T14:20:55.614Z,0.43
2023-01-09T14:23:42.119Z,0.60
2023-01-09T14:26:18.081Z,0.40
2023-01-09T14:28:45.371Z,0.30
2023-01-09T14:31:27.538Z,0.50
2023-01-09T14:34:23.941Z,0.40
2023-01-09T14:36:59.553Z,0.52
2023-01-09T14:39:27.766Z,0.75
2023-01-09T14:42:00.611Z,0.52
2023-01-09T14:44:31.026Z,0.77
2023-01-09T14:47:06.271Z,0.40
2023-01-09T14:49:40.180Z,0.50
2023-01-09T14:52:16.365Z,0.40
2023-01-09T14:54:44.552Z,1.13
2023-01-09T14:57:25.019Z,0.40
2023-01-09T14:59:58.121Z,1.73
2023-01-09T15:02:27.803Z,0.85
2023-01-09T15:04:57.625Z,0.68
2023-01-09T15:07:30.872Z,0.50
2023-01-09T15:10:01.053Z,0.60
2023-01-09T15:12:29.118Z,0.90
2023-01-09T15:14:58.345Z,0.65
2023-01-09T15:17:26.971Z,0.77
2023-01-09T15:19:54.913Z,0.55
2023-01-09T15:22:29.038Z,0.75
2023-01-09T15:24:56.412Z,1.00
2023-01-09T15:27:24.830Z,0.60
2023-01-09T15:29:53.115Z,1.23
2023-01-09T15:32:27.681Z,1.10
2023-01-09T15:34:55.635Z,0.70
2023-01-09T15:37:26.009Z,3.97
2023-01-09T15:39:53.508Z,7.97
2023-01-09T15:42:46.960Z,8.80
2023-01-09T15:45:22.592Z,6.63
2023-01-09T15:47:49.959Z,3.70
2023-01-09T15:50:18.780Z,6.00
2023-01-09T15:52:46.274Z,2.38
2023-01-09T15:55:21.249Z,3.28
2023-01-09T15:57:52.591Z,1.92
2023-01-09T16:00:39.392Z,4.50
2023-01-09T16:03:15.666Z,3.60
2023-01-09T16:05:47.516Z,2.05
2023-01-09T16:08:41.083Z,1.98
2023-01-09T16:11:10.924Z,0.90
2023-01-09T16:13:45.711Z,1.13
2023-01-09T16:16:13.376Z,0.98
2023-01-09T16:18:50.278Z,1.23
2023-01-09T16:21:37.710Z,2.10
2023-01-09T16:24:25.286Z,1.17
2023-01-09T16:26:53.309Z,0.80
2023-01-09T16:29:28.506Z,1.15
2023-01-09T16:31:59.367Z,0.95
2023-01-09T16:34:26.971Z,1.30
2023-01-09T16:36:54.471Z,0.75
2023-01-09T16:39:21.793Z,1.45
2023-01-09T16:42:07.897Z,0.70
2023-01-09T16:44:35.116Z,1.27
2023-01-09T16:47:02.403Z,0.80
2023-01-09T16:49:31.985Z,0.98
2023-01-09T16:52:02.968Z,1.10
2023-01-09T16:54:30.701Z,0.90
2023-01-09T16:56:58.088Z,1.05
2023-01-09T16:59:27.977Z,1.65
2023-01-09T17:01:55.645Z,0.70
2023-01-09T17:04:24.039Z,0.73
2023-01-09T17:06:51.352Z,1.25
2023-01-09T17:09:20.125Z,0.82
2023-01-09T17:11:47.459Z,0.75
2023-01-09T17:14:15.097Z,0.70
2023-01-09T17:16:48.563Z,0.90
2023-01-09T17:19:20.250Z,1.15
2023-01-09T17:21:47.546Z,1.10
2023-01-09T17:24:33.853Z,0.80
2023-01-09T17:27:20.659Z,0.80
2023-01-09T17:29:48.352Z,0.98
2023-01-09T17:32:16.523Z,0.70
2023-01-09T17:34:43.983Z,0.70
2023-01-09T17:37:15.831Z,0.93
2023-01-09T17:39:43.392Z,0.80
2023-01-09T17:42:10.697Z,0.80
2023-01-09T17:44:38.453Z,0.60
2023-01-09T17:47:07.090Z,1.77
2023-01-09T17:49:34.458Z,0.68
2023-01-09T17:52:01.667Z,0.80
2023-01-09T17:54:28.945Z,0.50
2023-01-09T17:56:56.253Z,1.00
2023-01-09T17:59:23.569Z,1.13
2023-01-09T18:01:50.811Z,1.00
2023-01-09T18:04:18.176Z,1.02
2023-01-09T18:06:45.437Z,0.95
2023-01-09T18:09:17.139Z,0.90
2023-01-09T18:11:45.242Z,1.23
2023-01-09T18:14:13.838Z,1.63
2023-01-09T18:16:41.405Z,2.90
2023-01-09T18:19:08.714Z,2.78
2023-01-09T18:21:35.901Z,5.53
2023-01-09T18:24:03.214Z,1.30
2023-01-09T18:26:30.434Z,1.08
2023-01-09T18:28:58.983Z,2.00
2023-01-09T18:31:27.417Z,1.10
2023-01-09T18:33:56.523Z,1.05
2023-01-09T18:36:29.357Z,1.10
2023-01-09T18:38:57.654Z,1.27
2023-01-09T18:41:25.145Z,1.17
2023-01-09T18:43:53.481Z,1.05
2023-01-09T18:46:24.127Z,0.88
2023-01-09T18:48:58.333Z,0.98
2023-01-09T18:51:26.404Z,1.15
2023-01-09T18:53:54.867Z,1.40
2023-01-09T18:56:22.375Z,1.20
2023-01-09T18:58:49.591Z,1.52
2023-01-09T19:01:17.433Z,1.85
2023-01-09T19:03:45.257Z,1.23
2023-01-09T19:06:13.042Z,1.23
2023-01-09T19:08:40.410Z,1.48
2023-01-09T19:11:07.837Z,1.27
2023-01-09T19:13:36.323Z,1.67
2023-01-09T19:16:04.422Z,1.00
2023-01-09T19:18:33.625Z,1.55
2023-01-09T19:21:00.823Z,1.25
2023-01-09T19:23:28.465Z,1.58
2023-01-09T19:25:57.637Z,1.80
2023-01-09T19:28:24.881Z,1.70
2023-01-09T19:30:56.774Z,1.48
2023-01-09T19:33:25.269Z,1.55
2023-01-09T19:35:52.902Z,1.50
2023-01-09T19:38:24.036Z,1.20
2023-01-09T19:40:51.680Z,1.20
2023-01-09T19:43:27.983Z,1.20
2023-01-09T19:45:55.780Z,1.50
2023-01-09T19:48:23.986Z,1.25
2023-01-09T19:50:51.209Z,1.38
2023-01-09T19:53:18.559Z,1.80
2023-01-09T19:55:45.850Z,1.40
2023-01-09T19:58:13.076Z,1.60
2023-01-09T20:00:40.274Z,1.33
2023-01-09T20:03:07.493Z,2.58
2023-01-09T20:05:35.505Z,2.17
2023-01-09T20:08:06.250Z,1.35
2023-01-09T20:10:34.068Z,1.52
2023-01-09T20:13:01.312Z,1.73
2023-01-09T20:15:28.529Z,1.38
2023-01-09T20:17:55.813Z,1.20
2023-01-09T20:20:23.082Z,1.52
2023-01-09T20:22:50.355Z,1.38
2023-01-09T20:25:17.725Z,2.25
2023-01-09T20:27:44.981Z,1.30
2023-01-09T20:30:12.475Z,1.73
2023-01-09T20:32:39.840Z,2.10
2023-01-09T20:35:07.455Z,1.70
2023-01-09T20:37:34.655Z,1.77
2023-01-09T20:40:01.875Z,1.35
2023-01-09T20:42:29.103Z,1.42
2023-01-09T20:44:57.107Z,2.25
2023-01-09T20:47:25.921Z,1.55
2023-01-09T20:49:53.095Z,2.17
2023-01-09T20:52:22.561Z,1.10
2023-01-09T20:54:49.853Z,1.55
2023-01-09T20:57:17.080Z,3.10
2023-01-09T20:59:44.277Z,1.58
2023-01-09T21:02:14.670Z,1.80
2023-01-09T21:04:41.926Z,3.08
2023-01-09T21:07:10.835Z,2.35
2023-01-09T21:09:38.081Z,2.08
2023-01-09T21:12:24.554Z,1.92
2023-01-09T21:14:52.203Z,2.17
2023-01-09T21:17:19.465Z,2.88
2023-01-09T21:19:47.341Z,1.92
2023-01-09T21:22:14.577Z,2.95
2023-01-09T21:24:41.846Z,1.90
2023-01-09T21:27:09.416Z,2.85
2023-01-09T21:29:36.692Z,1.95
2023-01-09T21:32:06.377Z,2.03
2023-01-09T21:34:33.751Z,1.52
2023-01-09T21:37:01.058Z,1.88
2023-01-09T21:39:28.369Z,2.10
2023-01-09T21:42:14.525Z,3.08
2023-01-09T21:45:00.456Z,2.15
2023-01-09T21:47:27.784Z,3.88
2023-01-09T21:49:54.997Z,1.70
2023-01-09T21:52:22.337Z,2.72
2023-01-09T21:54:49.629Z,2.50
2023-01-09T21:57:16.933Z,3.60
2023-01-09T21:59:44.893Z,2.50
2023-01-09T22:02:15.963Z,3.13
2023-01-09T22:04:43.302Z,1.88
2023-01-09T22:07:10.768Z,3.15
2023-01-09T22:09:38.205Z,3.65
2023-01-09T22:12:05.456Z,3.22
2023-01-09T22:14:32.693Z,1.63
2023-01-09T22:16:59.906Z,1.83
2023-01-09T22:19:28.204Z,1.42
2023-01-09T22:21:55.605Z,2.10
2023-01-09T22:24:23.164Z,1.92
2023-01-09T22:26:50.418Z,2.35
2023-01-09T22:29:17.624Z,1.98
2023-01-09T22:31:44.804Z,2.80
2023-01-09T22:34:16.186Z,2.58
2023-01-09T22:36:44.150Z,4.07
2023-01-09T22:39:13.311Z,1.70
2023-01-09T22:41:40.607Z,1.33
2023-01-09T22:44:07.999Z,2.58
2023-01-09T22:46:35.337Z,1.90
2023-01-09T22:49:02.839Z,2.05
2023-01-09T22:51:33.620Z,2.25
2023-01-09T22:54:01.817Z,2.60
2023-01-09T22:56:29.310Z,3.00
2023-01-09T22:58:59.031Z,2.55
2023-01-09T23:01:26.307Z,2.30
2023-01-09T23:03:53.555Z,2.15
2023-01-09T23:06:21.728Z,1.88
2023-01-09T23:08:50.744Z,2.17
2023-01-09T23:11:39.669Z,2.30
2023-01-09T23:14:07.048Z,1.85
2023-01-09T23:16:34.463Z,1.77
2023-01-09T23:19:01.721Z,2.17
2023-01-09T23:21:28.980Z,2.00
2023-01-09T23:23:56.305Z,1.95
2023-01-09T23:26:23.628Z,2.15
2023-01-09T23:28:50.799Z,1.38
2023-01-09T23:31:17.976Z,2.35
2023-01-09T23:33:45.426Z,1.70
2023-01-09T23:36:15.143Z,1.50
2023-01-09T23:38:44.033Z,2.50
2023-01-09T23:41:11.168Z,2.40
2023-01-09T23:43:38.463Z,1.80
2023-01-09T23:46:05.898Z,1.90
2023-01-09T23:48:33.100Z,1.33
2023-01-09T23:51:00.331Z,1.67
2023-01-09T23:53:29.679Z,1.70
2023-01-09T23:55:56.933Z,2.05
2023-01-09T23:58:24.205Z,1.70
